createdAt,value
2018-06-23T00:01:31.959Z,92.60
2018-06-23T00:03:59.993Z,91.40
2018-06-23T00:06:28.552Z,90.90
2018-06-23T00:08:56.464Z,91.20
2018-06-23T00:11:24.509Z,91.10
2018-06-23T00:13:52.032Z,90.80
2018-06-23T00:16:19.584Z,91.10
2018-06-23T00:18:47.512Z,91.60
2018-06-23T00:21:15.592Z,92.00
2018-06-23T00:23:43.195Z,92.00
2018-06-23T00:26:43.171Z,91.30
2018-06-23T00:29:11.395Z,90.30
2018-06-23T00:31:39.567Z,91.10
2018-06-23T00:34:07.086Z,90.70
2018-06-23T00:36:35.218Z,89.80
2018-06-23T00:39:02.923Z,91.50
2018-06-23T00:41:31.094Z,93.00
2018-06-23T00:43:59.173Z,92.20
2018-06-23T00:48:54.515Z,93.00
2018-06-23T00:51:22.067Z,92.90
2018-06-23T00:53:49.616Z,93.60
2018-06-23T00:56:17.152Z,92.80
2018-06-23T00:58:57.248Z,92.50
2018-06-23T01:01:26.027Z,92.30
2018-06-23T01:03:53.744Z,92.30
2018-06-23T01:06:21.254Z,92.10
2018-06-23T01:08:49.459Z,91.30
2018-06-23T01:11:17.000Z,92.10
2018-06-23T01:13:44.504Z,92.40
2018-06-23T01:16:12.336Z,94.10
2018-06-23T01:18:39.835Z,94.20
2018-06-23T01:21:08.161Z,94.80
2018-06-23T01:23:36.135Z,94.20
2018-06-23T01:26:03.728Z,93.80
2018-06-23T01:28:31.709Z,94.00
2018-06-23T01:30:59.576Z,93.10
2018-06-23T01:33:27.099Z,93.10
2018-06-23T01:35:54.755Z,92.90
2018-06-23T01:38:22.305Z,92.90
2018-06-23T01:40:50.344Z,93.60
2018-06-23T01:43:18.619Z,93.40
2018-06-23T01:45:46.494Z,92.50
2018-06-23T01:48:14.776Z,92.50
2018-06-23T01:50:42.305Z,93.40
2018-06-23T01:53:09.846Z,94.30
2018-06-23T01:55:37.383Z,93.20
2018-06-23T01:58:04.981Z,93.20
2018-06-23T02:00:33.066Z,93.20
2018-06-23T02:03:01.272Z,93.20
2018-06-23T02:05:29.211Z,93.30
2018-06-23T02:07:57.335Z,95.20
2018-06-23T02:10:24.906Z,93.80
2018-06-23T02:12:52.940Z,93.50
2018-06-23T02:15:27.814Z,93.30
2018-06-23T02:18:01.070Z,93.60
2018-06-23T02:20:34.759Z,93.00
2018-06-23T02:23:07.859Z,95.20
2018-06-23T02:25:41.187Z,93.70
2018-06-23T02:28:15.138Z,93.60
2018-06-23T02:30:48.640Z,94.20
2018-06-23T02:33:22.279Z,93.50
2018-06-23T02:35:49.843Z,93.00
2018-06-23T02:38:18.014Z,92.40
2018-06-23T02:40:46.126Z,92.10
2018-06-23T02:43:14.016Z,93.40
2018-06-23T02:45:42.009Z,93.60
2018-06-23T02:48:09.536Z,93.10
2018-06-23T02:50:37.073Z,92.70
2018-06-23T02:53:05.035Z,92.90
2018-06-23T02:55:32.587Z,92.90
2018-06-23T02:58:00.189Z,92.80
2018-06-23T03:00:28.091Z,92.90
2018-06-23T03:02:56.462Z,92.90
2018-06-23T03:05:23.982Z,92.90
2018-06-23T03:07:52.077Z,93.20
2018-06-23T03:10:20.083Z,94.20
2018-06-23T03:12:47.708Z,92.10
2018-06-23T03:15:15.251Z,92.80
2018-06-23T03:17:42.812Z,93.80
2018-06-23T03:20:11.610Z,93.40
2018-06-23T03:22:39.691Z,94.10
2018-06-23T03:25:07.211Z,95.90
2018-06-23T03:27:34.731Z,95.40
2018-06-23T03:30:02.748Z,95.20
2018-06-23T03:32:30.824Z,95.10
2018-06-23T03:34:58.992Z,95.00
2018-06-23T03:37:26.531Z,95.30
2018-06-23T03:39:54.784Z,95.10
2018-06-23T03:42:22.352Z,95.40
2018-06-23T03:44:50.936Z,95.30
2018-06-23T03:47:18.868Z,96.30
2018-06-23T03:52:13.840Z,97.00
2018-06-23T03:54:41.398Z,96.30
2018-06-23T03:57:08.944Z,96.30
2018-06-23T03:59:36.807Z,96.40
2018-06-23T04:02:05.440Z,96.20
2018-06-23T04:04:32.999Z,96.00
2018-06-23T04:07:02.040Z,95.20
2018-06-23T04:09:29.841Z,94.70
2018-06-23T04:11:57.793Z,94.50
2018-06-23T04:14:25.315Z,94.60
2018-06-23T04:16:52.944Z,94.50
2018-06-23T04:19:21.128Z,94.70
2018-06-23T04:21:49.192Z,94.50
2018-06-23T04:24:16.795Z,94.50
2018-06-23T04:26:44.320Z,93.60
2018-06-23T04:29:12.682Z,94.20
2018-06-23T04:31:40.689Z,94.50
2018-06-23T04:34:08.227Z,93.70
2018-06-23T04:36:35.755Z,94.20
2018-06-23T04:39:05.251Z,94.50
2018-06-23T04:41:34.180Z,94.30
2018-06-23T04:44:03.011Z,94.40
2018-06-23T04:46:31.163Z,94.70
2018-06-23T04:48:58.723Z,94.10
2018-06-23T04:53:53.713Z,93.80
2018-06-23T04:56:22.294Z,94.00
2018-06-23T04:58:50.257Z,94.30
2018-06-23T05:01:18.690Z,93.30
2018-06-23T05:06:14.203Z,93.00
2018-06-23T05:08:42.093Z,93.30
2018-06-23T05:11:09.615Z,92.20
2018-06-23T05:13:37.229Z,92.80
2018-06-23T05:16:05.394Z,92.10
2018-06-23T05:21:01.417Z,91.20
2018-06-23T05:23:28.997Z,91.50
2018-06-23T05:25:57.327Z,90.60
2018-06-23T05:28:25.426Z,91.00
2018-06-23T05:30:53.429Z,90.10
2018-06-23T05:33:22.088Z,90.20
2018-06-23T05:35:49.967Z,88.50
2018-06-23T05:38:17.526Z,89.00
2018-06-23T05:40:46.682Z,88.80
2018-06-23T05:43:14.656Z,88.10
2018-06-23T05:45:42.950Z,85.00
2018-06-23T05:48:11.537Z,85.90
2018-06-23T05:50:39.145Z,86.80
2018-06-23T05:53:07.112Z,85.60
2018-06-23T05:55:36.260Z,83.70
2018-06-23T05:58:03.869Z,86.40
2018-06-23T06:00:31.827Z,84.20
2018-06-23T06:02:59.805Z,85.30
2018-06-23T06:05:27.327Z,85.70
2018-06-23T06:07:55.291Z,85.70
2018-06-23T06:10:22.819Z,85.00
2018-06-23T06:12:50.384Z,83.80
2018-06-23T06:15:17.941Z,84.50
2018-06-23T06:17:46.155Z,84.10
2018-06-23T06:20:15.286Z,80.60
2018-06-23T06:22:45.369Z,82.00
2018-06-23T06:25:14.094Z,82.30
2018-06-23T06:27:42.657Z,83.30
2018-06-23T06:30:12.242Z,83.40
2018-06-23T06:32:40.190Z,80.40
2018-06-23T06:35:09.473Z,81.40
2018-06-23T06:37:37.208Z,77.40
2018-06-23T06:40:06.355Z,77.10
2018-06-23T06:42:33.931Z,77.90
2018-06-23T06:45:01.947Z,74.90
2018-06-23T06:47:30.086Z,76.80
2018-06-23T06:49:57.632Z,73.80
2018-06-23T06:52:25.158Z,73.70
2018-06-23T06:54:53.907Z,76.70
2018-06-23T06:57:21.473Z,75.80
2018-06-23T06:59:49.512Z,74.20
2018-06-23T07:02:17.691Z,70.30
2018-06-23T07:04:45.595Z,63.80
2018-06-23T07:07:13.594Z,65.40
2018-06-23T07:09:41.934Z,66.40
2018-06-23T07:12:09.555Z,66.80
2018-06-23T07:14:37.563Z,66.10
2018-06-23T07:17:05.219Z,66.70
2018-06-23T07:19:32.783Z,66.60
2018-06-23T07:24:28.648Z,64.80
2018-06-23T07:26:56.540Z,64.20
2018-06-23T07:29:24.601Z,64.10
2018-06-23T07:31:52.483Z,63.40
2018-06-23T07:34:20.091Z,65.10
2018-06-23T07:36:48.302Z,64.90
2018-06-23T07:39:15.844Z,63.90
2018-06-23T07:41:44.035Z,63.10
2018-06-23T07:46:40.919Z,62.70
2018-06-23T07:49:08.843Z,61.60
2018-06-23T07:51:36.867Z,62.50
2018-06-23T07:54:04.510Z,64.20
2018-06-23T07:56:32.083Z,62.60
2018-06-23T07:58:59.995Z,64.00
2018-06-23T08:01:27.570Z,62.50
2018-06-23T08:03:55.128Z,60.40
2018-06-23T08:06:22.836Z,60.30
2018-06-23T08:08:50.487Z,60.90
2018-06-23T08:11:19.743Z,61.60
2018-06-23T08:13:48.545Z,60.70
2018-06-23T08:16:16.120Z,60.00
2018-06-23T08:18:44.545Z,60.80
2018-06-23T08:21:12.655Z,59.60
2018-06-23T08:23:40.860Z,57.80
2018-06-23T08:26:09.139Z,57.70
2018-06-23T08:28:37.299Z,58.90
2018-06-23T08:31:06.288Z,59.60
2018-06-23T08:33:34.219Z,57.20
2018-06-23T08:36:02.212Z,58.40
2018-06-23T08:38:30.273Z,57.70
2018-06-23T08:40:58.191Z,56.60
2018-06-23T08:43:26.683Z,59.10
2018-06-23T08:45:54.811Z,59.10
2018-06-23T08:48:23.539Z,58.90
2018-06-23T08:50:51.915Z,58.70
2018-06-23T08:55:47.712Z,59.00
2018-06-23T08:58:15.619Z,57.10
2018-06-23T09:03:11.689Z,59.10
2018-06-23T09:05:39.760Z,58.00
2018-06-23T09:08:08.009Z,57.40
2018-06-23T09:10:35.861Z,57.60
2018-06-23T09:13:04.223Z,58.10
2018-06-23T09:15:31.889Z,57.70
2018-06-23T09:17:59.606Z,55.80
2018-06-23T09:20:28.664Z,55.80
2018-06-23T09:22:56.226Z,56.80
2018-06-23T09:25:23.835Z,54.60
2018-06-23T09:27:51.553Z,56.00
2018-06-23T09:30:19.548Z,55.10
2018-06-23T09:32:47.179Z,54.00
2018-06-23T09:35:14.720Z,54.90
2018-06-23T09:37:42.279Z,54.50
2018-06-23T09:40:10.276Z,53.20
2018-06-23T09:42:37.905Z,54.70
2018-06-23T09:45:05.719Z,55.40
2018-06-23T09:47:33.785Z,54.30
2018-06-23T09:50:01.657Z,55.20
2018-06-23T09:52:29.190Z,52.70
2018-06-23T09:54:57.291Z,55.30
2018-06-23T09:57:24.851Z,53.90
2018-06-23T09:59:52.801Z,55.10
2018-06-23T10:02:20.369Z,55.70
2018-06-23T10:04:48.075Z,55.00
2018-06-23T10:07:16.375Z,55.10
2018-06-23T10:09:44.280Z,55.20
2018-06-23T10:12:11.811Z,54.60
2018-06-23T10:14:39.328Z,53.50
2018-06-23T10:17:07.656Z,53.60
2018-06-23T10:19:35.739Z,53.80
2018-06-23T10:22:03.814Z,53.40
2018-06-23T10:24:32.000Z,51.50
2018-06-23T10:27:00.678Z,52.20
2018-06-23T10:29:28.831Z,51.40
2018-06-23T10:31:56.901Z,52.40
2018-06-23T10:34:24.637Z,50.40
2018-06-23T10:36:52.188Z,52.30
2018-06-23T10:39:19.758Z,52.80
2018-06-23T10:41:48.062Z,51.60
2018-06-23T10:46:44.009Z,51.90
2018-06-23T10:49:12.200Z,51.50
2018-06-23T10:54:07.888Z,50.50
2018-06-23T10:56:35.429Z,49.80
2018-06-23T10:59:03.797Z,47.60
2018-06-23T11:01:31.775Z,47.00
2018-06-23T11:03:59.319Z,48.10
2018-06-23T11:06:27.155Z,46.80
2018-06-23T11:08:54.674Z,45.80
2018-06-23T11:11:22.259Z,45.00
2018-06-23T11:13:49.835Z,46.00
2018-06-23T11:16:17.838Z,46.60
2018-06-23T11:18:45.724Z,45.20
2018-06-23T11:21:13.651Z,44.00
2018-06-23T11:23:41.686Z,45.80
2018-06-23T11:26:10.248Z,44.90
2018-06-23T11:28:38.461Z,44.90
2018-06-23T11:31:06.472Z,44.80
2018-06-23T11:33:34.027Z,45.00
2018-06-23T11:36:01.595Z,46.90
2018-06-23T11:38:29.104Z,43.90
2018-06-23T11:40:57.816Z,45.20
2018-06-23T11:43:25.720Z,43.80
2018-06-23T11:45:53.803Z,42.80
2018-06-23T11:48:21.718Z,43.80
2018-06-23T11:53:16.966Z,40.80
2018-06-23T11:55:44.680Z,42.10
2018-06-23T11:58:12.682Z,42.90
2018-06-23T12:00:40.989Z,39.90
2018-06-23T12:05:37.066Z,41.60
2018-06-23T12:08:04.650Z,41.70
2018-06-23T12:10:32.617Z,42.60
2018-06-23T12:13:00.494Z,43.70
2018-06-23T12:15:28.432Z,44.30
2018-06-23T12:17:56.005Z,44.10
2018-06-23T12:20:24.225Z,44.20
2018-06-23T12:22:53.169Z,42.50
2018-06-23T12:25:20.896Z,43.70
2018-06-23T12:27:48.413Z,42.40
2018-06-23T12:30:17.165Z,42.90
2018-06-23T12:32:45.585Z,41.80
2018-06-23T12:35:13.517Z,41.40
2018-06-23T12:37:41.457Z,41.10
2018-06-23T12:40:10.716Z,41.00
2018-06-23T12:42:38.237Z,42.70
2018-06-23T12:45:06.197Z,42.20
2018-06-23T12:47:34.256Z,42.50
2018-06-23T12:50:01.800Z,43.30
2018-06-23T12:52:29.429Z,43.10
2018-06-23T12:54:56.976Z,43.60
2018-06-23T12:57:25.023Z,44.90
2018-06-23T12:59:52.550Z,42.90
2018-06-23T13:04:47.740Z,42.90
2018-06-23T13:07:15.238Z,43.00
2018-06-23T13:09:42.862Z,42.80
2018-06-23T13:12:11.455Z,43.90
2018-06-23T13:14:39.040Z,43.90
2018-06-23T13:17:06.653Z,43.70
2018-06-23T13:19:34.330Z,44.60
2018-06-23T13:22:02.597Z,43.90
2018-06-23T13:24:30.645Z,43.40
2018-06-23T13:26:58.166Z,43.80
2018-06-23T13:29:26.153Z,44.30
2018-06-23T13:31:54.893Z,44.20
2018-06-23T13:34:22.872Z,43.70
2018-06-23T13:36:51.549Z,43.80
2018-06-23T13:39:19.141Z,43.00
2018-06-23T13:41:47.185Z,42.80
2018-06-23T13:46:43.885Z,43.90
2018-06-23T13:49:11.485Z,43.80
2018-06-23T13:51:39.433Z,44.10
2018-06-23T13:54:07.032Z,43.90
2018-06-23T13:56:34.614Z,44.10
2018-06-23T13:59:02.201Z,44.30
2018-06-23T14:01:29.738Z,43.10
2018-06-23T14:03:57.917Z,42.70
2018-06-23T14:06:25.469Z,43.50
2018-06-23T14:08:53.336Z,43.70
2018-06-23T14:11:20.849Z,44.50
2018-06-23T14:13:48.397Z,42.50
2018-06-23T14:16:15.953Z,43.30
2018-06-23T14:18:44.562Z,43.60
2018-06-23T14:21:12.737Z,43.20
2018-06-23T14:23:40.639Z,43.20
2018-06-23T14:26:08.532Z,42.80
2018-06-23T14:28:37.271Z,43.40
2018-06-23T14:31:05.711Z,41.70
2018-06-23T14:33:33.766Z,42.30
2018-06-23T14:36:01.672Z,42.50
2018-06-23T14:38:29.856Z,42.00
2018-06-23T14:40:58.376Z,41.40
2018-06-23T14:45:54.461Z,42.00
2018-06-23T14:48:22.433Z,42.20
2018-06-23T14:50:49.984Z,42.80
2018-06-23T14:53:17.499Z,42.50
2018-06-23T14:55:45.160Z,42.40
2018-06-23T14:58:13.627Z,41.30
2018-06-23T15:00:41.400Z,41.70
2018-06-23T15:03:08.961Z,40.80
2018-06-23T15:05:37.089Z,41.70
2018-06-23T15:08:17.435Z,42.10
2018-06-23T15:10:56.533Z,42.00
2018-06-23T15:13:24.123Z,43.00
2018-06-23T15:15:51.652Z,43.30
2018-06-23T15:18:19.270Z,43.20
2018-06-23T15:20:47.920Z,44.20
2018-06-23T15:23:15.465Z,43.10
2018-06-23T15:25:43.811Z,43.40
2018-06-23T15:28:11.981Z,44.50
2018-06-23T15:30:40.152Z,43.30
2018-06-23T15:33:08.145Z,43.90
2018-06-23T15:35:35.670Z,45.00
2018-06-23T15:40:31.192Z,43.70
2018-06-23T15:42:59.073Z,43.30
2018-06-23T15:45:27.283Z,43.80
2018-06-23T15:47:55.347Z,44.40
2018-06-23T15:52:50.395Z,44.20
2018-06-23T15:55:18.017Z,44.60
2018-06-23T15:57:45.640Z,45.50
2018-06-23T16:00:13.181Z,45.70
2018-06-23T16:02:41.457Z,46.20
2018-06-23T16:05:09.507Z,46.70
2018-06-23T16:07:37.451Z,47.50
2018-06-23T16:10:09.099Z,47.40
2018-06-23T16:12:36.622Z,47.60
2018-06-23T16:15:04.905Z,47.90
2018-06-23T16:20:00.627Z,48.10
2018-06-23T16:22:29.335Z,47.40
2018-06-23T16:24:56.891Z,47.40
2018-06-23T16:27:24.977Z,47.40
2018-06-23T16:29:52.983Z,47.60
2018-06-23T16:32:20.825Z,47.50
2018-06-23T16:34:49.316Z,48.00
2018-06-23T16:39:44.808Z,48.20
2018-06-23T16:42:12.739Z,48.60
2018-06-23T16:44:40.883Z,48.50
2018-06-23T16:47:08.708Z,49.00
2018-06-23T16:49:36.791Z,49.30
2018-06-23T16:52:04.761Z,48.70
2018-06-23T16:54:32.348Z,48.70
2018-06-23T16:56:59.915Z,49.30
2018-06-23T16:59:27.527Z,49.70
2018-06-23T17:01:55.996Z,49.80
2018-06-23T17:04:23.580Z,51.00
2018-06-23T17:06:51.093Z,50.00
2018-06-23T17:09:18.702Z,49.70
2018-06-23T17:11:46.360Z,50.30
2018-06-23T17:14:14.459Z,49.90
2018-06-23T17:16:42.067Z,50.30
2018-06-23T17:19:09.723Z,50.30
2018-06-23T17:21:37.795Z,50.80
2018-06-23T17:24:06.232Z,50.90
2018-06-23T17:26:34.182Z,50.70
2018-06-23T17:29:02.203Z,51.20
2018-06-23T17:31:30.072Z,51.30
2018-06-23T17:33:58.427Z,51.50
2018-06-23T17:36:25.944Z,51.90
2018-06-23T17:38:53.506Z,52.30
2018-06-23T17:41:21.374Z,52.00
2018-06-23T17:43:49.286Z,52.00
2018-06-23T17:46:17.174Z,52.40
2018-06-23T17:48:44.723Z,53.10
2018-06-23T17:51:12.559Z,52.80
2018-06-23T17:53:40.107Z,53.30
2018-06-23T17:56:07.702Z,52.90
2018-06-23T17:58:35.515Z,53.00
2018-06-23T18:01:03.160Z,53.30
2018-06-23T18:03:31.355Z,53.60
2018-06-23T18:05:59.242Z,53.40
2018-06-23T18:08:26.832Z,53.80
2018-06-23T18:10:54.384Z,54.40
2018-06-23T18:13:22.540Z,54.40
2018-06-23T18:15:50.817Z,54.40
2018-06-23T18:20:46.592Z,54.90
2018-06-23T18:23:14.576Z,55.10
2018-06-23T18:25:42.643Z,55.60
2018-06-23T18:28:11.841Z,55.60
2018-06-23T18:30:39.950Z,55.40
2018-06-23T18:33:08.101Z,55.90
2018-06-23T18:35:35.755Z,55.80
2018-06-23T18:38:03.974Z,55.90
2018-06-23T18:40:32.296Z,56.50
2018-06-23T18:43:00.489Z,56.30
2018-06-23T18:45:29.321Z,56.90
2018-06-23T18:47:57.453Z,57.40
2018-06-23T18:50:25.530Z,57.40
2018-06-23T18:52:53.590Z,57.80
2018-06-23T18:55:21.854Z,59.10
2018-06-23T18:57:50.134Z,59.20
2018-06-23T19:00:18.226Z,58.90
2018-06-23T19:02:46.333Z,59.40
2018-06-23T19:05:14.481Z,60.00
2018-06-23T19:10:10.006Z,61.40
2018-06-23T19:15:05.673Z,62.60
2018-06-23T19:17:33.197Z,62.70
2018-06-23T19:20:01.311Z,62.50
2018-06-23T19:22:29.309Z,65.00
2018-06-23T19:24:56.837Z,64.10
2018-06-23T19:27:24.776Z,64.30
2018-06-23T19:29:53.603Z,64.30
2018-06-23T19:32:21.629Z,63.90
2018-06-23T19:34:49.720Z,63.40
2018-06-23T19:37:17.602Z,63.70
2018-06-23T19:39:45.376Z,63.80
2018-06-23T19:42:14.616Z,63.30
2018-06-23T19:44:42.662Z,64.00
2018-06-23T19:47:10.734Z,63.10
2018-06-23T19:49:38.337Z,63.20
2018-06-23T19:52:06.168Z,62.60
2018-06-23T19:54:34.315Z,62.40
2018-06-23T19:57:02.356Z,61.40
2018-06-23T19:59:30.031Z,60.50
2018-06-23T20:01:57.638Z,60.70
2018-06-23T20:04:25.226Z,60.90
2018-06-23T20:06:53.131Z,61.00
2018-06-23T20:09:21.574Z,62.00
2018-06-23T20:11:50.462Z,62.00
2018-06-23T20:14:18.686Z,62.30
2018-06-23T20:16:46.666Z,62.10
2018-06-23T20:19:14.211Z,62.50
2018-06-23T20:21:42.499Z,63.00
2018-06-23T20:24:10.136Z,63.20
2018-06-23T20:26:38.432Z,63.20
2018-06-23T20:31:34.803Z,65.20
2018-06-23T20:34:02.620Z,65.30
2018-06-23T20:36:30.277Z,64.50
2018-06-23T20:38:57.824Z,65.50
2018-06-23T20:41:25.776Z,64.70
2018-06-23T20:46:22.841Z,65.90
2018-06-23T20:48:50.357Z,66.70
2018-06-23T20:51:18.545Z,68.90
2018-06-23T20:53:46.126Z,69.30
2018-06-23T20:56:13.826Z,70.30
2018-06-23T20:58:41.395Z,69.70
2018-06-23T21:01:09.105Z,69.30
2018-06-23T21:03:36.680Z,70.90
2018-06-23T21:06:04.416Z,70.80
2018-06-23T21:08:32.641Z,72.90
2018-06-23T21:11:00.187Z,72.20
2018-06-23T21:13:27.779Z,71.80
2018-06-23T21:15:56.038Z,73.80
2018-06-23T21:18:24.051Z,72.00
2018-06-23T21:20:52.269Z,71.80
2018-06-23T21:23:20.346Z,74.70
2018-06-23T21:25:48.200Z,73.50
2018-06-23T21:28:16.355Z,72.50
2018-06-23T21:30:44.671Z,72.70
2018-06-23T21:33:12.957Z,71.50
2018-06-23T21:35:40.505Z,71.30
2018-06-23T21:38:08.043Z,72.50
2018-06-23T21:40:36.014Z,73.20
2018-06-23T21:43:04.104Z,73.20
2018-06-23T21:45:32.274Z,73.60
2018-06-23T21:47:59.878Z,72.90
2018-06-23T21:50:28.358Z,72.70
2018-06-23T21:52:55.882Z,73.10
2018-06-23T21:55:24.203Z,73.80
2018-06-23T21:57:51.723Z,74.80
2018-06-23T22:00:29.864Z,74.80
2018-06-23T22:02:57.477Z,75.90
2018-06-23T22:05:25.090Z,77.80
2018-06-23T22:07:53.240Z,78.50
2018-06-23T22:10:20.776Z,77.60
2018-06-23T22:12:48.880Z,76.90
2018-06-23T22:15:17.085Z,77.40
2018-06-23T22:17:44.723Z,79.40
2018-06-23T22:20:12.961Z,78.00
2018-06-23T22:22:41.035Z,81.90
2018-06-23T22:25:08.886Z,80.10
2018-06-23T22:27:37.343Z,79.80
2018-06-23T22:30:05.432Z,81.20
2018-06-23T22:32:32.957Z,81.40
2018-06-23T22:35:00.598Z,81.10
2018-06-23T22:37:28.820Z,82.60
2018-06-23T22:39:56.447Z,81.20
2018-06-23T22:42:24.306Z,81.80
2018-06-23T22:44:52.150Z,82.30
2018-06-23T22:47:20.086Z,82.60
2018-06-23T22:49:47.599Z,82.80
2018-06-23T22:52:15.122Z,82.50
2018-06-23T22:54:42.693Z,84.30
2018-06-23T22:57:10.289Z,84.10
2018-06-23T22:59:37.865Z,83.30
2018-06-23T23:02:05.749Z,83.30
2018-06-23T23:04:33.325Z,85.30
2018-06-23T23:07:00.821Z,84.50
2018-06-23T23:09:28.899Z,84.40
2018-06-23T23:11:56.429Z,85.20
2018-06-23T23:14:24.363Z,84.70
2018-06-23T23:16:51.930Z,84.90
2018-06-23T23:19:19.927Z,85.40
2018-06-23T23:21:47.960Z,85.30
2018-06-23T23:24:15.485Z,83.80
2018-06-23T23:26:43.519Z,84.20
2018-06-23T23:29:11.570Z,84.10
2018-06-23T23:31:39.944Z,84.80
2018-06-23T23:34:07.502Z,85.70
2018-06-23T23:36:35.064Z,86.90
2018-06-23T23:39:03.273Z,86.50
2018-06-23T23:41:31.282Z,86.30
2018-06-23T23:43:59.143Z,86.10
2018-06-23T23:46:27.121Z,86.20
2018-06-23T23:48:54.657Z,87.00
2018-06-23T23:51:22.173Z,86.30
2018-06-23T23:53:49.717Z,87.20
2018-06-23T23:56:17.235Z,88.60
2018-06-23T23:58:44.827Z,87.00
